Time;durP1;ratioP1;P1;durP2;ratioP2;P2;SDS_P1;SDS_P2;PMS_P1;PMS_P2;Temp;Humidity;BMP_temperature;BMP_pressure;BME280_temperature;BME280_humidity;BME280_pressure;Samples;Min_cycle;Max_cycle;Signal;HPM_P1;HPM_P2
2022/03/15 00:00:27;;;;;;;12.35;4.85;;;6.10;99.90;;;;;;5035314;28;20138;-81
2022/03/15 00:02:54;;;;;;;19.63;6.22;;;6.00;99.90;;;;;;5003256;28;20045;-77
2022/03/15 00:05:20;;;;;;;15.63;5.55;;;6.00;99.90;;;;;;5053575;28;20477;-77
2022/03/15 00:07:47;;;;;;;14.00;5.70;;;6.00;99.90;;;;;;5035639;28;20056;-77
2022/03/15 00:10:15;;;;;;;14.55;5.28;;;6.00;99.90;;;;;;5053760;28;20048;-77
2022/03/15 00:12:42;;;;;;;13.48;4.97;;;6.00;99.90;;;;;;5052918;28;20061;-77
2022/03/15 00:15:09;;;;;;;17.58;6.82;;;5.90;99.90;;;;;;5036235;28;20057;-77
2022/03/15 00:17:41;;;;;;;13.43;5.78;;;5.90;99.90;;;;;;5035738;28;20480;-77
2022/03/15 00:20:10;;;;;;;12.65;5.53;;;5.90;99.90;;;;;;5053520;28;20088;-76
2022/03/15 00:22:37;;;;;;;14.00;6.00;;;5.90;99.90;;;;;;5035628;28;20044;-77
2022/03/15 00:25:05;;;;;;;15.13;5.38;;;5.90;99.90;;;;;;5019465;28;20102;-77
2022/03/15 00:27:32;;;;;;;13.95;5.32;;;5.80;99.90;;;;;;5019412;28;20060;-77
2022/03/15 00:29:58;;;;;;;13.25;5.35;;;5.90;99.90;;;;;;5036162;28;20106;-77
2022/03/15 00:32:25;;;;;;;18.73;6.18;;;5.80;99.90;;;;;;5035474;28;20052;-77
2022/03/15 00:34:51;;;;;;;16.90;6.07;;;5.80;99.90;;;;;;5053363;28;20102;-77
2022/03/15 00:37:17;;;;;;;15.45;5.97;;;5.80;99.90;;;;;;5035711;28;20539;-76
2022/03/15 00:39:43;;;;;;;14.95;5.35;;;5.80;99.90;;;;;;5035207;28;20088;-77
2022/03/15 00:42:10;;;;;;;15.00;6.00;;;5.80;99.90;;;;;;5035654;28;20080;-77
2022/03/15 00:44:35;;;;;;;16.75;5.63;;;5.80;99.90;;;;;;5018282;28;20386;-77
2022/03/15 00:47:02;;;;;;;18.40;7.07;;;5.80;99.90;;;;;;5019110;28;20127;-77
2022/03/15 00:49:28;;;;;;;14.40;5.47;;;5.80;99.90;;;;;;5053121;28;20053;-76
2022/03/15 00:51:54;;;;;;;16.47;6.40;;;5.70;99.90;;;;;;5052757;28;20234;-77
2022/03/15 00:54:23;;;;;;;16.45;6.20;;;5.70;99.90;;;;;;5035377;28;20049;-77
2022/03/15 00:56:52;;;;;;;18.83;5.57;;;5.70;99.90;;;;;;5018616;28;20053;-77
2022/03/15 00:59:19;;;;;;;13.00;5.25;;;5.60;99.90;;;;;;5052887;28;20484;-77
2022/03/15 01:01:46;;;;;;;14.55;5.82;;;5.70;99.90;;;;;;5034978;28;20053;-77
2022/03/15 01:04:12;;;;;;;14.75;6.07;;;5.60;99.90;;;;;;5035172;28;20045;-76
2022/03/15 01:06:39;;;;;;;15.07;5.68;;;5.60;99.90;;;;;;5052765;28;20057;-77
2022/03/15 01:09:06;;;;;;;15.52;6.28;;;;;;;;;;5035265;28;20063;-77
2022/03/15 01:11:32;;;;;;;17.20;6.45;;;5.60;99.90;;;;;;5018702;28;20045;-78
2022/03/15 01:13:58;;;;;;;15.23;5.43;;;5.40;99.90;;;;;;5034842;28;20053;-77
2022/03/15 01:16:24;;;;;;;11.13;5.53;;;5.50;99.90;;;;;;5052860;28;20080;-77
2022/03/15 01:18:50;;;;;;;13.90;6.07;;;5.50;99.90;;;;;;5034839;28;20048;-77
2022/03/15 01:21:16;;;;;;;17.27;6.10;;;5.50;99.90;;;;;;5052715;28;20747;-77
2022/03/15 01:23:42;;;;;;;20.02;7.45;;;5.50;99.90;;;;;;5034832;28;20088;-77
2022/03/15 01:26:09;;;;;;;18.30;6.13;;;5.50;99.90;;;;;;5002483;28;20057;-77
2022/03/15 01:28:35;;;;;;;21.50;6.38;;;5.40;99.90;;;;;;5034573;28;20558;-81
2022/03/15 01:31:01;;;;;;;18.37;7.37;;;5.40;99.90;;;;;;5035095;28;20073;-77
2022/03/15 01:33:27;;;;;;;16.97;6.10;;;5.40;99.90;;;;;;5018811;28;20389;-77
2022/03/15 01:35:54;;;;;;;15.80;6.30;;;5.50;99.90;;;;;;5034679;28;20045;-77
2022/03/15 01:38:20;;;;;;;23.02;7.35;;;5.50;99.90;;;;;;4986507;28;20045;-76
2022/03/15 01:40:46;;;;;;;18.07;7.30;;;5.50;99.90;;;;;;5051938;28;20051;-77
2022/03/15 01:43:12;;;;;;;15.23;6.47;;;5.60;99.90;;;;;;5035011;28;20053;-77
2022/03/15 01:45:40;;;;;;;18.13;7.40;;;5.60;99.90;;;;;;5034295;28;20315;-78
2022/03/15 01:48:07;;;;;;;20.60;7.03;;;5.60;99.90;;;;;;5018414;28;20095;-76
2022/03/15 01:50:34;;;;;;;18.95;7.75;;;5.70;99.90;;;;;;5034904;28;20128;-77
2022/03/15 01:53:00;;;;;;;18.77;7.53;;;5.70;99.90;;;;;;5017920;28;20049;-77
2022/03/15 01:55:26;;;;;;;18.80;7.97;;;5.70;99.90;;;;;;5018084;28;20055;-77
2022/03/15 01:57:52;;;;;;;22.17;7.20;;;5.80;99.90;;;;;;5018068;28;20128;-75
2022/03/15 02:00:18;;;;;;;17.73;7.03;;;5.90;99.90;;;;;;5034698;28;20114;-74
2022/03/15 02:02:45;;;;;;;15.50;7.32;;;6.00;99.90;;;;;;5017969;28;20056;-76
2022/03/15 02:05:11;;;;;;;19.30;7.10;;;6.00;99.90;;;;;;5034482;28;20045;-76
2022/03/15 02:07:38;;;;;;;20.80;8.05;;;6.00;99.90;;;;;;5034683;28;20516;-76
2022/03/15 02:10:05;;;;;;;21.05;8.32;;;6.10;99.90;;;;;;5034534;28;20048;-76
2022/03/15 02:12:37;;;;;;;19.33;8.18;;;6.10;99.90;;;;;;5034448;28;20068;-76
2022/03/15 02:15:04;;;;;;;23.00;9.23;;;6.10;99.90;;;;;;5018758;28;20060;-77
2022/03/15 02:17:30;;;;;;;20.52;8.82;;;6.20;99.90;;;;;;5018215;28;20086;-76
2022/03/15 02:19:56;;;;;;;17.47;8.03;;;6.20;99.90;;;;;;5017506;28;20136;-76
2022/03/15 02:22:22;;;;;;;20.63;8.07;;;6.20;99.90;;;;;;5034603;28;20053;-76
2022/03/15 02:24:49;;;;;;;19.23;7.27;;;6.20;99.90;;;;;;5019886;28;20056;-76
2022/03/15 02:27:15;;;;;;;21.17;9.48;;;6.30;99.90;;;;;;5038244;28;20045;-76
2022/03/15 02:29:41;;;;;;;18.20;8.48;;;6.30;99.90;;;;;;5022033;28;20104;-82
2022/03/15 02:32:07;;;;;;;18.20;8.55;;;6.30;99.90;;;;;;5038095;28;20127;-76
2022/03/15 02:34:33;;;;;;;18.63;8.27;;;6.30;99.90;;;;;;5037786;28;20103;-75
2022/03/15 02:37:00;;;;;;;22.98;9.60;;;6.30;99.90;;;;;;5055312;28;20128;-76
2022/03/15 02:39:26;;;;;;;19.45;8.80;;;6.30;99.90;;;;;;5037719;28;20049;-76
2022/03/15 02:41:52;;;;;;;21.98;8.18;;;6.30;99.90;;;;;;5021138;28;20131;-76
2022/03/15 02:44:17;;;;;;;21.53;8.37;;;6.40;99.90;;;;;;5020971;28;20128;-75
2022/03/15 02:46:48;;;;;;;20.13;8.33;;;6.40;99.90;;;;;;5021060;28;20045;-77
2022/03/15 02:49:13;;;;;;;22.83;9.55;;;6.40;99.90;;;;;;5055412;28;20047;-76
2022/03/15 02:51:39;;;;;;;24.33;9.60;;;6.40;99.90;;;;;;5021168;28;20124;-76
2022/03/15 02:54:11;;;;;;;23.67;9.20;;;6.40;99.90;;;;;;5020853;28;20085;-76
2022/03/15 02:56:47;;;;;;;16.35;8.40;;;6.40;99.90;;;;;;5021092;28;20330;-76
2022/03/15 02:59:17;;;;;;;19.55;9.27;;;6.50;99.90;;;;;;5021270;28;20056;-76
2022/03/15 03:01:44;;;;;;;22.80;9.65;;;6.50;99.90;;;;;;5037219;28;20045;-75
2022/03/15 03:04:10;;;;;;;23.13;9.07;;;6.50;99.90;;;;;;5020878;28;20052;-75
2022/03/15 03:06:37;;;;;;;21.60;9.18;;;6.50;99.90;;;;;;5037160;28;20052;-76
2022/03/15 03:09:04;;;;;;;17.42;9.63;;;6.60;99.90;;;;;;4988229;28;20477;-76
2022/03/15 03:11:30;;;;;;;19.45;8.63;;;6.60;99.90;;;;;;5054588;28;20488;-76
2022/03/15 03:13:58;;;;;;;19.15;8.23;;;6.60;99.90;;;;;;5020100;28;20061;-76
2022/03/15 03:16:26;;;;;;;18.13;8.38;;;6.60;99.90;;;;;;5020896;28;20533;-76
2022/03/15 03:18:53;;;;;;;18.85;8.52;;;6.60;99.90;;;;;;5036840;28;20051;-76
2022/03/15 03:21:19;;;;;;;16.33;8.38;;;6.60;99.90;;;;;;5036877;28;20439;-76
2022/03/15 03:23:44;;;;;;;20.20;8.13;;;6.60;99.90;;;;;;5054591;28;20063;-76
2022/03/15 03:26:10;;;;;;;18.80;9.37;;;6.70;99.90;;;;;;5003900;28;20049;-76
2022/03/15 03:28:39;;;;;;;20.30;8.83;;;6.70;99.90;;;;;;5054711;28;20400;-76
2022/03/15 03:31:07;;;;;;;19.98;9.52;;;6.60;99.90;;;;;;5036619;28;20095;-76
2022/03/15 03:33:34;;;;;;;22.15;9.02;;;6.60;99.90;;;;;;5036398;28;20133;-76
2022/03/15 03:36:00;;;;;;;20.70;8.65;;;6.60;99.90;;;;;;5036543;28;20132;-76
2022/03/15 03:38:25;;;;;;;21.03;10.37;;;6.70;99.90;;;;;;5020204;28;20149;-76
2022/03/15 03:40:51;;;;;;;22.60;9.43;;;6.70;99.90;;;;;;5036318;28;20279;-76
2022/03/15 03:43:17;;;;;;;18.83;8.77;;;6.70;99.90;;;;;;5054243;28;20053;-76
2022/03/15 03:45:43;;;;;;;19.53;8.83;;;6.70;99.90;;;;;;5019939;28;20107;-76
2022/03/15 03:48:09;;;;;;;18.67;8.53;;;6.70;99.90;;;;;;5036153;28;20400;-76
2022/03/15 03:50:35;;;;;;;21.60;9.37;;;6.70;99.90;;;;;;5020227;28;20052;-76
2022/03/15 03:53:03;;;;;;;16.15;9.18;;;6.70;99.90;;;;;;5036109;28;20049;-76
2022/03/15 03:55:29;;;;;;;17.65;9.30;;;6.70;99.90;;;;;;5036089;28;20063;-76
2022/03/15 03:57:55;;;;;;;20.42;9.43;;;6.70;99.90;;;;;;5036173;28;20048;-76
2022/03/15 04:00:21;;;;;;;19.97;9.63;;;6.80;99.90;;;;;;5036509;28;20473;-76
2022/03/15 04:02:46;;;;;;;21.70;10.07;;;6.80;99.90;;;;;;5036011;28;20044;-76
2022/03/15 04:05:13;;;;;;;23.20;10.93;;;6.80;99.90;;;;;;5019054;28;20045;-76
2022/03/15 04:07:40;;;;;;;24.27;11.13;;;6.80;99.90;;;;;;5019857;28;20067;-76
2022/03/15 04:10:08;;;;;;;20.75;9.98;;;6.80;99.90;;;;;;5035619;28;20048;-76
2022/03/15 04:12:35;;;;;;;24.85;10.57;;;6.80;99.90;;;;;;5035551;28;20107;-76
2022/03/15 04:15:02;;;;;;;21.48;11.38;;;6.80;99.90;;;;;;5035652;28;20060;-76
2022/03/15 04:17:28;;;;;;;26.38;11.35;;;6.80;99.90;;;;;;5019542;28;20049;-76
2022/03/15 04:19:54;;;;;;;28.70;12.93;;;6.90;99.90;;;;;;5035779;28;20389;-76
2022/03/15 04:22:20;;;;;;;24.23;12.50;;;6.80;99.90;;;;;;5036328;28;20061;-76
2022/03/15 04:24:46;;;;;;;17.30;10.88;;;6.80;99.90;;;;;;5035625;28;20041;-76
2022/03/15 04:27:11;;;;;;;26.07;11.87;;;6.90;99.90;;;;;;5035447;28;20428;-75
2022/03/15 04:29:37;;;;;;;23.53;11.87;;;6.90;99.90;;;;;;5035677;28;20064;-76
2022/03/15 04:32:04;;;;;;;20.97;11.60;;;6.90;99.90;;;;;;5036466;28;20114;-76
2022/03/15 04:34:30;;;;;;;21.85;12.90;;;6.90;99.90;;;;;;5004257;28;20037;-75
2022/03/15 04:36:57;;;;;;;19.45;11.25;;;6.90;99.90;;;;;;5035544;28;20091;-76
2022/03/15 04:39:23;;;;;;;21.85;12.40;;;6.80;99.90;;;;;;5035667;28;20057;-76
2022/03/15 04:41:50;;;;;;;22.13;10.70;;;6.80;99.90;;;;;;5035700;28;20049;-76
2022/03/15 04:44:16;;;;;;;21.90;11.98;;;6.80;99.90;;;;;;5002798;28;20037;-76
2022/03/15 04:46:42;;;;;;;25.85;12.77;;;6.80;99.90;;;;;;5035251;28;20045;-75
2022/03/15 04:49:08;;;;;;;25.02;12.10;;;6.80;99.90;;;;;;5018488;28;20138;-75
2022/03/15 04:51:34;;;;;;;23.13;12.10;;;6.80;99.90;;;;;;5002747;28;20100;-75
2022/03/15 04:54:01;;;;;;;22.33;12.40;;;6.70;99.90;;;;;;5035041;28;20049;-76
2022/03/15 04:56:27;;;;;;;21.23;12.27;;;6.70;99.90;;;;;;5035287;28;20431;-75
2022/03/15 04:58:52;;;;;;;20.63;11.40;;;6.70;99.90;;;;;;5035181;28;20103;-75
2022/03/15 05:01:18;;;;;;;24.17;12.57;;;6.70;99.90;;;;;;5035147;28;20053;-76
2022/03/15 05:03:44;;;;;;;24.23;13.45;;;6.70;99.90;;;;;;5035276;28;20048;-75
2022/03/15 05:06:10;;;;;;;24.80;12.93;;;6.70;99.90;;;;;;5018683;28;20107;-76
2022/03/15 05:08:36;;;;;;;23.60;12.77;;;6.70;99.90;;;;;;5035113;28;20072;-75
2022/03/15 05:11:07;;;;;;;21.40;13.27;;;6.70;99.90;;;;;;5034788;28;20049;-75
2022/03/15 05:13:45;;;;;;;25.38;12.93;;;6.70;99.90;;;;;;5003129;28;20508;-75
2022/03/15 05:16:14;;;;;;;23.65;13.07;;;6.70;99.90;;;;;;5034982;28;20461;-75
2022/03/15 05:18:41;;;;;;;24.25;13.10;;;6.60;99.90;;;;;;5035013;28;20489;-75
2022/03/15 05:21:07;;;;;;;25.42;12.88;;;6.60;99.90;;;;;;5034602;28;20091;-75
2022/03/15 05:23:34;;;;;;;24.85;12.20;;;6.60;99.90;;;;;;5018797;28;20053;-75
2022/03/15 05:26:01;;;;;;;22.88;11.93;;;6.60;99.90;;;;;;5034834;28;20099;-75
2022/03/15 05:28:27;;;;;;;23.95;12.63;;;6.60;99.90;;;;;;5035111;28;20045;-75
2022/03/15 05:30:53;;;;;;;25.52;13.20;;;6.60;99.90;;;;;;5018959;28;20377;-76
2022/03/15 05:33:19;;;;;;;24.83;13.10;;;6.60;99.90;;;;;;5018397;28;20060;-75
2022/03/15 05:35:45;;;;;;;21.13;11.67;;;6.50;99.90;;;;;;5034891;28;20111;-75
2022/03/15 05:38:11;;;;;;;25.20;12.77;;;6.50;99.90;;;;;;5018296;28;20084;-76
2022/03/15 05:40:36;;;;;;;21.10;13.02;;;6.50;99.90;;;;;;5052594;28;20048;-76
2022/03/15 05:43:02;;;;;;;25.87;13.07;;;6.50;99.90;;;;;;5018016;28;20499;-76
2022/03/15 05:45:29;;;;;;;22.93;13.30;;;6.50;99.90;;;;;;5052870;28;20052;-75
2022/03/15 05:47:55;;;;;;;23.05;13.35;;;6.50;99.90;;;;;;5034569;28;20540;-75
2022/03/15 05:50:22;;;;;;;24.10;13.77;;;6.50;99.90;;;;;;5018123;28;20061;-75
2022/03/15 05:52:48;;;;;;;24.27;13.32;;;6.40;99.90;;;;;;5018332;28;20053;-75
2022/03/15 05:55:13;;;;;;;20.67;12.33;;;6.50;99.90;;;;;;5034457;28;20048;-75
2022/03/15 05:57:39;;;;;;;26.10;13.23;;;6.40;99.90;;;;;;5018251;28;20186;-75
2022/03/15 06:00:06;;;;;;;29.50;13.27;;;6.40;99.90;;;;;;5037456;28;20052;-75
2022/03/15 06:02:32;;;;;;;23.08;13.55;;;6.40;99.90;;;;;;5022200;28;20150;-75
2022/03/15 06:04:59;;;;;;;24.45;14.15;;;6.40;99.90;;;;;;5056156;28;20045;-75
2022/03/15 06:07:27;;;;;;;25.23;15.07;;;6.40;99.90;;;;;;5021930;28;20124;-75
2022/03/15 06:09:53;;;;;;;29.63;14.55;;;6.40;99.90;;;;;;5022017;28;20065;-75
2022/03/15 06:12:20;;;;;;;23.05;13.85;;;6.40;99.90;;;;;;5021604;28;20076;-74
2022/03/15 06:14:47;;;;;;;24.85;14.32;;;6.40;99.90;;;;;;5056042;28;20045;-75
2022/03/15 06:17:12;;;;;;;21.95;13.63;;;6.40;99.90;;;;;;5055738;28;20048;-75
2022/03/15 06:19:38;;;;;;;30.57;14.67;;;6.50;99.90;;;;;;5038163;28;20056;-75
2022/03/15 06:22:04;;;;;;;28.47;15.73;;;6.40;99.90;;;;;;5037857;28;20057;-76
2022/03/15 06:24:31;;;;;;;26.48;16.25;;;6.40;99.90;;;;;;5055712;28;20103;-75
2022/03/15 06:26:58;;;;;;;27.80;15.50;;;6.40;99.90;;;;;;5055856;28;20053;-75
2022/03/15 06:29:25;;;;;;;26.90;16.02;;;6.40;99.90;;;;;;5037684;28;20061;-75
2022/03/15 06:31:53;;;;;;;28.75;15.13;;;6.40;99.90;;;;;;5056404;28;20389;-75
2022/03/15 06:34:18;;;;;;;30.00;15.75;;;6.40;99.90;;;;;;5023241;28;20136;-75
2022/03/15 06:36:44;;;;;;;29.70;15.90;;;6.40;99.90;;;;;;5006205;28;20191;-75
2022/03/15 06:39:10;;;;;;;25.77;15.73;;;6.40;99.90;;;;;;5004953;28;20469;-75
2022/03/15 06:41:37;;;;;;;29.10;16.33;;;6.50;99.90;;;;;;5021358;28;20080;-75
2022/03/15 06:44:03;;;;;;;25.92;15.68;;;6.60;99.90;;;;;;5055355;28;20045;-75
2022/03/15 06:46:30;;;;;;;26.38;15.85;;;6.60;99.90;;;;;;5020882;28;20460;-75
2022/03/15 06:48:56;;;;;;;24.10;15.45;;;6.60;99.90;;;;;;5055488;28;20151;-75
2022/03/15 06:51:22;;;;;;;28.45;16.13;;;6.60;99.90;;;;;;5055043;28;20048;-75
2022/03/15 06:53:48;;;;;;;21.57;15.03;;;6.70;99.90;;;;;;5021018;28;20055;-75
2022/03/15 06:56:14;;;;;;;26.77;15.37;;;6.70;99.90;;;;;;5037427;28;20085;-75
2022/03/15 06:58:40;;;;;;;22.87;14.97;;;6.70;99.90;;;;;;5037653;28;20505;-75
2022/03/15 07:01:05;;;;;;;26.93;16.83;;;6.80;99.90;;;;;;5037374;28;20041;-75
2022/03/15 07:03:31;;;;;;;29.67;16.50;;;6.80;99.90;;;;;;5054946;28;20055;-74
2022/03/15 07:05:57;;;;;;;26.47;15.63;;;6.80;99.90;;;;;;5055002;28;20080;-73
2022/03/15 07:08:22;;;;;;;32.23;15.63;;;6.80;99.90;;;;;;5054388;28;20106;-74
2022/03/15 07:10:48;;;;;;;28.17;15.83;;;6.90;99.90;;;;;;5037190;28;20124;-75
2022/03/15 07:13:14;;;;;;;27.13;15.63;;;6.90;99.90;;;;;;5019900;28;20140;-74
2022/03/15 07:15:40;;;;;;;27.90;15.43;;;6.90;99.90;;;;;;5037289;28;20049;-80
2022/03/15 07:18:06;;;;;;;30.15;16.83;;;6.90;99.90;;;;;;5021078;28;20052;-77
2022/03/15 07:20:32;;;;;;;28.07;16.30;;;6.90;99.90;;;;;;5036485;28;20045;-74
2022/03/15 07:22:58;;;;;;;27.00;15.77;;;6.90;99.90;;;;;;5053786;28;20067;-77
2022/03/15 07:25:23;;;;;;;26.43;15.60;;;7.00;99.90;;;;;;5019888;28;20074;-74
2022/03/15 07:27:50;;;;;;;29.43;16.40;;;7.00;99.90;;;;;;5037056;28;20041;-74
2022/03/15 07:30:15;;;;;;;30.67;16.35;;;6.90;99.90;;;;;;5054552;28;20045;-74
2022/03/15 07:32:41;;;;;;;28.80;16.57;;;6.90;99.90;;;;;;5036876;28;20041;-74
2022/03/15 07:35:08;;;;;;;30.37;16.70;;;7.00;99.90;;;;;;5054646;28;20037;-74
2022/03/15 07:37:34;;;;;;;27.75;16.25;;;7.00;99.90;;;;;;5054296;28;20254;-74
2022/03/15 07:40:00;;;;;;;31.30;17.03;;;7.00;99.90;;;;;;5054510;28;20041;-74
2022/03/15 07:42:26;;;;;;;31.13;16.30;;;7.00;99.90;;;;;;5054245;28;20120;-74
2022/03/15 07:44:51;;;;;;;27.90;16.67;;;7.10;99.90;;;;;;5036664;28;20128;-74
2022/03/15 07:47:17;;;;;;;31.90;18.67;;;7.10;99.90;;;;;;5054107;28;20288;-74
2022/03/15 07:49:43;;;;;;;28.33;17.83;;;7.10;99.90;;;;;;5054354;28;20080;-74
2022/03/15 07:52:10;;;;;;;26.77;17.25;;;7.10;99.90;;;;;;5054369;28;20107;-74
2022/03/15 07:54:36;;;;;;;29.23;18.13;;;7.20;99.90;;;;;;5054318;28;20075;-74
2022/03/15 07:57:02;;;;;;;29.97;19.37;;;7.30;99.90;;;;;;5054160;28;20045;-74
2022/03/15 07:59:29;;;;;;;31.58;19.88;;;7.40;99.90;;;;;;5036467;28;20280;-75
2022/03/15 08:01:55;;;;;;;33.17;18.10;;;7.50;99.90;;;;;;5036572;28;20053;-74
2022/03/15 08:04:20;;;;;;;30.43;21.10;;;7.50;99.90;;;;;;5053434;28;20045;-75
2022/03/15 08:06:47;;;;;;;32.60;18.90;;;7.60;99.90;;;;;;5054172;28;20195;-74
2022/03/15 08:09:14;;;;;;;32.05;19.70;;;7.70;99.90;;;;;;5053927;28;20052;-80
2022/03/15 08:11:40;;;;;;;28.30;19.75;;;7.70;99.90;;;;;;5053847;28;20049;-75
2022/03/15 08:14:07;;;;;;;33.05;19.00;;;7.90;99.90;;;;;;5019595;28;20061;-75
2022/03/15 08:16:33;;;;;;;33.13;19.35;;;7.90;99.90;;;;;;5035888;28;20052;-74
2022/03/15 08:18:59;;;;;;;35.60;21.60;;;;;;;;;;5036270;28;20056;-74
2022/03/15 08:21:26;;;;;;;32.97;20.23;;;7.90;99.90;;;;;;5052699;28;20048;-75
2022/03/15 08:23:52;;;;;;;35.05;20.70;;;8.00;99.90;;;;;;5035746;28;20049;-74
2022/03/15 08:26:18;;;;;;;35.03;21.27;;;8.00;99.90;;;;;;5053365;28;20115;-75
2022/03/15 08:28:47;;;;;;;32.83;22.13;;;8.10;99.90;;;;;;5053652;28;20128;-74
2022/03/15 08:31:12;;;;;;;33.40;21.88;;;8.10;99.90;;;;;;5035879;28;20049;-74
2022/03/15 08:33:38;;;;;;;33.00;21.20;;;8.10;99.90;;;;;;5053378;28;20040;-74
2022/03/15 08:36:05;;;;;;;32.07;22.00;;;8.20;99.90;;;;;;5035882;28;20114;-74
2022/03/15 08:38:30;;;;;;;33.65;21.00;;;8.20;99.90;;;;;;5054407;28;20104;-74
2022/03/15 08:40:57;;;;;;;37.13;23.37;;;8.30;99.90;;;;;;5035703;28;20053;-74
2022/03/15 08:43:24;;;;;;;31.13;21.20;;;8.30;99.90;;;;;;5053205;28;20045;-74
2022/03/15 08:45:50;;;;;;;30.80;20.87;;;8.30;99.90;;;;;;5053317;28;20370;-74
2022/03/15 08:48:16;;;;;;;31.70;21.90;;;8.40;99.90;;;;;;5035529;28;20355;-74
2022/03/15 08:50:41;;;;;;;32.30;21.17;;;8.40;99.90;;;;;;5053264;28;20367;-74
2022/03/15 08:53:07;;;;;;;30.20;21.83;;;8.40;99.90;;;;;;5035675;28;20369;-73
2022/03/15 08:55:35;;;;;;;29.67;22.23;;;8.40;99.90;;;;;;5035172;28;20044;-74
2022/03/15 08:58:02;;;;;;;31.57;22.30;;;8.50;99.90;;;;;;5035345;28;20337;-74
2022/03/15 09:00:28;;;;;;;34.90;22.63;;;8.50;99.90;;;;;;5052847;28;20279;-75
2022/03/15 09:02:54;;;;;;;31.73;22.57;;;8.70;99.90;;;;;;5035552;28;20294;-75
2022/03/15 09:05:20;;;;;;;35.33;23.47;;;8.60;99.90;;;;;;5052829;28;20045;-75
2022/03/15 09:07:52;;;;;;;29.60;20.90;;;8.60;99.90;;;;;;5052947;28;20301;-74
2022/03/15 09:10:22;;;;;;;35.40;23.03;;;8.60;99.90;;;;;;5052982;28;20789;-74
2022/03/15 09:12:49;;;;;;;30.80;22.53;;;8.70;99.90;;;;;;5034930;28;20287;-74
2022/03/15 09:15:15;;;;;;;33.77;22.93;;;8.70;99.90;;;;;;5052953;28;20280;-74
2022/03/15 09:17:41;;;;;;;29.77;21.70;;;8.70;99.90;;;;;;5034836;28;20779;-74
2022/03/15 09:20:09;;;;;;;34.00;23.67;;;8.70;99.90;;;;;;5052683;28;20790;-74
2022/03/15 09:22:35;;;;;;;33.00;22.47;;;8.80;99.90;;;;;;5052616;28;20298;-74
2022/03/15 09:25:02;;;;;;;35.20;23.50;;;8.80;99.90;;;;;;5052751;28;20337;-74
2022/03/15 09:27:27;;;;;;;31.27;21.87;;;8.80;99.90;;;;;;5052512;28;20287;-74
2022/03/15 09:29:54;;;;;;;33.03;22.07;;;8.80;99.90;;;;;;5018631;28;20292;-74
2022/03/15 09:32:21;;;;;;;31.67;22.73;;;8.90;99.90;;;;;;5052821;28;20045;-80
2022/03/15 09:34:46;;;;;;;29.57;21.40;;;8.90;99.90;;;;;;5056833;28;20358;-74
2022/03/15 09:37:13;;;;;;;36.30;20.93;;;9.00;99.90;;;;;;5039244;28;20374;-74
2022/03/15 09:39:38;;;;;;;29.80;21.87;;;9.10;99.90;;;;;;5056528;28;20041;-74
2022/03/15 09:42:09;;;;;;;28.80;21.10;;;9.10;99.90;;;;;;5056669;28;20286;-74
2022/03/15 09:44:40;;;;;;;29.33;21.77;;;9.20;99.90;;;;;;5056398;28;20056;-74
2022/03/15 09:47:07;;;;;;;30.47;20.67;;;9.30;99.90;;;;;;5056683;28;20757;-74
2022/03/15 09:49:34;;;;;;;30.00;20.50;;;9.30;99.90;;;;;;5056337;28;20319;-74
2022/03/15 09:52:04;;;;;;;29.63;21.00;;;9.40;99.90;;;;;;5056487;28;20363;-74
2022/03/15 09:54:30;;;;;;;27.93;21.47;;;9.40;99.90;;;;;;5056326;28;20294;-74
2022/03/15 09:56:57;;;;;;;28.53;20.80;;;9.50;99.90;;;;;;5056729;28;20275;-74
2022/03/15 09:59:24;;;;;;;29.17;20.30;;;9.50;99.90;;;;;;5038640;28;20298;-81
2022/03/15 10:01:52;;;;;;;27.77;20.40;;;9.60;99.90;;;;;;5056368;28;20358;-75
2022/03/15 10:04:18;;;;;;;28.10;20.00;;;9.60;99.90;;;;;;5038685;28;20308;-74
2022/03/15 10:06:44;;;;;;;28.17;20.73;;;9.70;99.90;;;;;;5038513;28;20341;-74
2022/03/15 10:09:11;;;;;;;27.47;19.90;;;9.70;99.90;;;;;;5038394;28;20272;-74
2022/03/15 10:11:37;;;;;;;26.87;19.90;;;9.70;99.90;;;;;;5038432;28;20055;-74
2022/03/15 10:14:04;;;;;;;32.67;20.60;;;9.70;99.90;;;;;;5055846;28;20275;-75
2022/03/15 10:16:36;;;;;;;27.00;19.47;;;9.60;99.90;;;;;;5055907;28;20279;-75
2022/03/15 10:19:02;;;;;;;26.33;20.73;;;9.60;99.90;;;;;;5056324;28;20276;-74
2022/03/15 10:21:51;;;;;;;31.33;19.97;;;9.70;99.90;;;;;;5038227;28;20288;-75
2022/03/15 10:24:18;;;;;;;27.03;20.70;;;9.70;99.90;;;;;;5038382;28;20303;-74
2022/03/15 10:26:46;;;;;;;28.40;19.40;;;9.70;99.90;;;;;;5037973;28;20378;-75
2022/03/15 10:29:13;;;;;;;26.80;20.37;;;9.70;99.90;;;;;;5038151;28;20294;-74
2022/03/15 10:31:40;;;;;;;25.40;19.60;;;9.80;99.90;;;;;;5055651;28;20283;-75
2022/03/15 10:34:08;;;;;;;28.13;18.73;;;9.80;99.90;;;;;;5055864;28;20327;-75
2022/03/15 10:36:54;;;;;;;27.33;19.10;;;9.80;99.90;;;;;;5055496;28;20280;-75
2022/03/15 10:39:21;;;;;;;26.07;18.37;;;9.80;99.90;;;;;;5055910;28;20271;-74
2022/03/15 10:41:59;;;;;;;25.90;18.33;;;9.80;99.90;;;;;;5056539;28;20279;-75
2022/03/15 10:44:31;;;;;;;25.93;17.77;;;9.70;99.90;;;;;;5054966;28;20303;-75
2022/03/15 10:47:12;;;;;;;25.17;18.90;;;9.70;99.90;;;;;;5055485;28;20283;-75
2022/03/15 10:50:09;;;;;;;26.87;18.50;;;9.70;99.90;;;;;;5037647;28;20279;-75
2022/03/15 10:52:42;;;;;;;30.73;20.73;;;9.60;99.90;;;;;;5017658;28;20299;-75
2022/03/15 10:55:13;;;;;;;27.93;19.23;;;9.50;99.90;;;;;;5055181;28;20631;-74
2022/03/15 10:57:51;;;;;;;27.93;19.97;;;9.50;99.90;;;;;;5055070;28;20357;-74
2022/03/15 11:00:22;;;;;;;26.57;19.57;;;9.50;99.90;;;;;;5055301;28;20335;-73
2022/03/15 11:02:50;;;;;;;28.30;19.90;;;9.50;99.90;;;;;;5055111;28;20479;-72
2022/03/15 11:05:29;;;;;;;26.07;19.33;;;9.40;99.90;;;;;;5037358;28;20353;-72
2022/03/15 11:07:55;;;;;;;34.23;22.17;;;9.40;99.90;;;;;;5055111;28;20422;-73
2022/03/15 11:10:21;;;;;;;28.93;21.10;;;9.40;99.90;;;;;;5055144;28;20283;-73
2022/03/15 11:12:55;;;;;;;29.13;21.27;;;9.30;99.90;;;;;;5037097;28;20291;-73
2022/03/15 11:15:30;;;;;;;32.08;21.85;;;9.40;99.90;;;;;;5055110;28;20045;-73
2022/03/15 11:17:58;;;;;;;33.08;21.33;;;9.40;99.90;;;;;;5054983;28;20052;-73
2022/03/15 11:20:25;;;;;;;30.17;20.63;;;9.40;99.90;;;;;;5054885;28;20146;-73
2022/03/15 11:22:53;;;;;;;29.27;20.73;;;9.50;99.90;;;;;;5036875;28;20291;-73
2022/03/15 11:25:21;;;;;;;26.67;19.37;;;9.50;99.90;;;;;;5054672;28;20353;-72
2022/03/15 11:27:51;;;;;;;31.93;19.63;;;9.60;99.90;;;;;;5054443;28;20345;-72
2022/03/15 11:30:19;;;;;;;27.67;17.20;;;9.70;99.90;;;;;;5037339;28;20298;-72
2022/03/15 11:32:46;;;;;;;25.47;16.10;;;9.70;99.90;;;;;;5054454;28;20290;-72
2022/03/15 11:35:13;;;;;;;22.90;16.07;;;9.80;99.90;;;;;;5054288;28;20767;-72
2022/03/15 11:37:42;;;;;;;22.63;14.37;;;9.80;99.90;;;;;;5054380;28;20281;-73
2022/03/15 11:40:11;;;;;;;27.63;16.57;;;9.80;99.90;;;;;;5054557;28;20275;-73
2022/03/15 11:42:42;;;;;;;23.70;14.90;;;9.80;99.90;;;;;;5054386;28;20616;-73
2022/03/15 11:45:16;;;;;;;26.40;15.30;;;9.80;99.90;;;;;;5036715;28;20310;-73
2022/03/15 11:48:05;;;;;;;25.57;14.40;;;9.90;99.90;;;;;;5054277;28;20279;-74
2022/03/15 11:50:55;;;;;;;23.37;17.30;;;9.90;99.90;;;;;;5054485;28;20364;-73
2022/03/15 11:53:30;;;;;;;21.87;15.07;;;10.00;99.90;;;;;;5036904;28;20288;-73
2022/03/15 11:56:07;;;;;;;25.58;16.50;;;10.10;99.90;;;;;;5053244;28;20337;-73
2022/03/15 11:58:33;;;;;;;24.70;16.20;;;10.20;99.90;;;;;;5054270;28;20436;-73
2022/03/15 12:01:12;;;;;;;21.53;15.17;;;10.30;99.90;;;;;;5054370;28;20371;-73
2022/03/15 12:03:47;;;;;;;20.67;14.57;;;10.40;99.90;;;;;;5053925;28;20280;-73
2022/03/15 12:06:26;;;;;;;23.17;14.60;;;10.40;99.90;;;;;;5036217;28;20299;-73
2022/03/15 12:08:54;;;;;;;25.00;15.70;;;10.60;99.90;;;;;;5053897;28;20049;-73
2022/03/15 12:11:40;;;;;;;21.83;15.30;;;10.60;99.90;;;;;;5053953;28;20279;-72
2022/03/15 12:14:16;;;;;;;21.60;15.47;;;10.80;99.90;;;;;;5035996;28;20758;-72
2022/03/15 12:16:45;;;;;;;20.90;15.13;;;;;;;;;;5053682;28;20280;-73
2022/03/15 12:19:23;;;;;;;19.13;13.73;;;11.00;99.90;;;;;;5053862;28;20276;-72
2022/03/15 12:21:55;;;;;;;15.97;11.30;;;11.10;99.90;;;;;;5053519;28;20307;-73
2022/03/15 12:24:36;;;;;;;16.97;11.67;;;11.20;99.90;;;;;;5053625;28;20350;-73
2022/03/15 12:27:04;;;;;;;20.63;11.57;;;11.20;99.90;;;;;;5053963;28;20369;-73
2022/03/15 12:29:31;;;;;;;16.60;10.37;;;11.30;99.90;;;;;;5036008;28;20636;-72
2022/03/15 12:32:09;;;;;;;18.70;11.83;;;11.40;99.90;;;;;;5035805;28;20393;-72
2022/03/15 12:34:34;;;;;;;17.53;11.50;;;11.40;99.90;;;;;;5053639;28;20347;-73
2022/03/15 12:37:01;;;;;;;14.37;10.23;;;11.50;99.90;;;;;;5053648;28;20284;-73
2022/03/15 12:39:28;;;;;;;16.50;9.63;;;11.50;99.90;;;;;;5036018;28;20064;-73
2022/03/15 12:42:15;;;;;;;16.10;10.97;;;11.60;99.90;;;;;;5053217;28;20280;-73